createdAt,value
2017-01-17T00:00:01.848Z,0
2017-01-17T00:01:01.803Z,0
2017-01-17T00:02:01.770Z,0
2017-01-17T00:03:01.745Z,0
2017-01-17T00:04:01.712Z,0
2017-01-17T00:05:01.672Z,0
2017-01-17T00:06:01.639Z,0
2017-01-17T00:07:01.622Z,0
2017-01-17T00:08:01.591Z,0
2017-01-17T00:09:01.552Z,0
2017-01-17T00:10:01.532Z,0
2017-01-17T00:11:01.488Z,0
2017-01-17T00:12:01.459Z,0
2017-01-17T00:13:01.423Z,0
2017-01-17T00:14:01.403Z,0
2017-01-17T00:15:01.373Z,0
2017-01-17T00:16:01.726Z,0
2017-01-17T00:17:01.301Z,0
2017-01-17T00:18:01.262Z,0
2017-01-17T00:19:01.250Z,0
2017-01-17T00:20:01.216Z,0
2017-01-17T00:21:01.179Z,0
2017-01-17T00:22:01.152Z,0
2017-01-17T00:23:01.107Z,0
2017-01-17T00:24:01.075Z,0
2017-01-17T00:25:01.050Z,0
2017-01-17T00:26:01.020Z,0
2017-01-17T00:27:00.982Z,0
2017-01-17T00:28:00.955Z,0
2017-01-17T00:29:00.922Z,0
2017-01-17T00:30:00.909Z,0
2017-01-17T00:31:00.864Z,0
2017-01-17T00:32:00.823Z,0
2017-01-17T00:33:00.795Z,0
2017-01-17T00:34:00.766Z,0
2017-01-17T00:35:00.748Z,0
2017-01-17T00:36:00.695Z,0
2017-01-17T00:37:00.670Z,0
2017-01-17T00:38:00.643Z,0
2017-01-17T00:39:00.597Z,0
2017-01-17T00:40:00.583Z,0
2017-01-17T00:41:00.550Z,0
2017-01-17T00:42:00.526Z,0
2017-01-17T00:43:00.477Z,0
2017-01-17T00:44:00.465Z,0
2017-01-17T00:45:00.412Z,0
2017-01-17T00:46:00.385Z,0
2017-01-17T00:47:00.355Z,0
2017-01-17T00:48:00.318Z,0
2017-01-17T00:49:00.287Z,0
2017-01-17T00:50:00.264Z,0
2017-01-17T00:51:00.240Z,0
2017-01-17T00:52:00.196Z,0
2017-01-17T00:53:00.174Z,0
2017-01-17T00:54:00.134Z,0
2017-01-17T00:55:00.108Z,0
2017-01-17T00:56:00.078Z,0
2017-01-17T00:57:00.043Z,0
2017-01-17T00:58:00.010Z,0
2017-01-17T00:58:59.970Z,0
2017-01-17T00:59:59.952Z,0
2017-01-17T01:00:59.906Z,0
2017-01-17T01:01:59.871Z,0
2017-01-17T01:02:59.853Z,0
2017-01-17T01:03:59.804Z,0
2017-01-17T01:04:59.791Z,0
2017-01-17T01:05:59.747Z,0
2017-01-17T01:06:59.718Z,0
2017-01-17T01:07:59.696Z,0
2017-01-17T01:08:59.677Z,0
2017-01-17T01:09:59.634Z,0
2017-01-17T01:10:59.594Z,0
2017-01-17T01:11:59.570Z,0
2017-01-17T01:12:59.549Z,0
2017-01-17T01:13:59.514Z,0
2017-01-17T01:14:59.852Z,0
2017-01-17T01:15:59.441Z,0
2017-01-17T01:16:59.407Z,0
2017-01-17T01:17:59.396Z,0
2017-01-17T01:18:59.355Z,0
2017-01-17T01:19:59.310Z,0
2017-01-17T01:20:59.282Z,0
2017-01-17T01:21:59.246Z,0
2017-01-17T01:22:59.214Z,0
2017-01-17T01:23:59.188Z,0
2017-01-17T01:24:59.152Z,0
2017-01-17T01:25:59.119Z,0
2017-01-17T01:26:59.097Z,0
2017-01-17T01:27:59.063Z,0
2017-01-17T01:28:59.020Z,0
2017-01-17T01:29:58.991Z,0
2017-01-17T01:30:58.970Z,0
2017-01-17T01:31:58.939Z,0
2017-01-17T01:32:58.901Z,0
2017-01-17T01:33:58.867Z,0
2017-01-17T01:34:58.879Z,0
2017-01-17T01:35:58.809Z,0
2017-01-17T01:36:58.776Z,0
2017-01-17T01:37:58.751Z,0
2017-01-17T01:38:58.712Z,0
2017-01-17T01:39:58.672Z,0
2017-01-17T01:40:58.646Z,0
2017-01-17T01:41:58.609Z,0
2017-01-17T01:42:58.579Z,0
2017-01-17T01:43:58.556Z,0
2017-01-17T01:44:58.519Z,0
2017-01-17T01:45:58.488Z,0
2017-01-17T01:46:58.455Z,0
2017-01-17T01:47:58.431Z,0
2017-01-17T01:48:58.385Z,0
2017-01-17T01:49:58.357Z,0
2017-01-17T01:50:58.323Z,0
2017-01-17T01:51:58.305Z,0
2017-01-17T01:52:58.266Z,0
2017-01-17T01:53:58.246Z,0
2017-01-17T01:54:58.206Z,0
2017-01-17T01:55:58.159Z,0
2017-01-17T01:56:58.140Z,0
2017-01-17T01:57:58.106Z,0
2017-01-17T01:58:58.062Z,0
2017-01-17T01:59:58.041Z,0
2017-01-17T02:00:58.016Z,0
2017-01-17T02:01:57.981Z,0
2017-01-17T02:02:57.960Z,0
2017-01-17T02:03:57.923Z,0
2017-01-17T02:04:57.888Z,0
2017-01-17T02:05:57.857Z,0
2017-01-17T02:06:57.822Z,0
2017-01-17T02:07:57.796Z,0
2017-01-17T02:08:57.760Z,0
2017-01-17T02:09:57.728Z,0
2017-01-17T02:10:57.693Z,0
2017-01-17T02:11:57.659Z,0
2017-01-17T02:12:57.636Z,0
2017-01-17T02:13:57.600Z,0
2017-01-17T02:14:57.574Z,0
2017-01-17T02:15:57.538Z,0
2017-01-17T02:16:57.501Z,0
2017-01-17T02:17:57.485Z,0
2017-01-17T02:18:57.434Z,0
2017-01-17T02:19:57.411Z,0
2017-01-17T02:20:57.370Z,0
2017-01-17T02:21:57.348Z,0
2017-01-17T02:22:57.308Z,0
2017-01-17T02:23:57.287Z,0
2017-01-17T02:24:57.265Z,0
2017-01-17T02:25:57.225Z,0
2017-01-17T02:26:57.203Z,0
2017-01-17T02:27:57.159Z,0
2017-01-17T02:28:57.154Z,0
2017-01-17T02:29:57.094Z,0
2017-01-17T02:30:57.069Z,0
2017-01-17T02:31:57.033Z,0
2017-01-17T02:32:57.002Z,0
2017-01-17T02:33:56.975Z,0
2017-01-17T02:34:56.935Z,0
2017-01-17T02:35:56.902Z,0
2017-01-17T02:36:56.886Z,0
2017-01-17T02:37:56.843Z,0
2017-01-17T02:38:56.820Z,0
2017-01-17T02:39:56.785Z,0
2017-01-17T02:40:56.747Z,0
2017-01-17T02:41:56.724Z,0
2017-01-17T02:42:56.686Z,0
2017-01-17T02:43:56.653Z,0
2017-01-17T02:44:56.625Z,0
2017-01-17T02:45:56.586Z,0
2017-01-17T02:46:56.553Z,0
2017-01-17T02:47:56.521Z,0
2017-01-17T02:48:56.489Z,0
2017-01-17T02:49:56.461Z,0
2017-01-17T02:50:56.460Z,0
2017-01-17T02:51:56.397Z,0
2017-01-17T02:52:56.635Z,0
2017-01-17T02:53:56.339Z,0
2017-01-17T02:54:56.307Z,0
2017-01-17T02:55:56.299Z,0
2017-01-17T02:56:56.236Z,0
2017-01-17T02:57:56.214Z,0
2017-01-17T02:58:56.185Z,0
2017-01-17T02:59:56.153Z,0
2017-01-17T03:00:56.119Z,0
2017-01-17T03:01:56.080Z,0
2017-01-17T03:02:56.049Z,0
2017-01-17T03:03:56.022Z,0
2017-01-17T03:04:55.981Z,0
2017-01-17T03:05:55.952Z,0
2017-01-17T03:06:55.924Z,0
2017-01-17T03:07:55.886Z,0
2017-01-17T03:08:55.877Z,0
2017-01-17T03:09:55.834Z,0
2017-01-17T03:10:55.795Z,0
2017-01-17T03:11:55.767Z,0
2017-01-17T03:12:55.736Z,0
2017-01-17T03:13:55.701Z,0
2017-01-17T03:14:55.664Z,0
2017-01-17T03:15:55.630Z,0
2017-01-17T03:16:55.619Z,0
2017-01-17T03:17:55.568Z,0
2017-01-17T03:18:55.526Z,0
2017-01-17T03:19:55.513Z,0
2017-01-17T03:20:55.477Z,0
2017-01-17T03:21:55.455Z,0
2017-01-17T03:22:55.425Z,0
2017-01-17T03:23:55.378Z,0
2017-01-17T03:24:55.350Z,0
2017-01-17T03:25:55.326Z,0
2017-01-17T03:26:55.328Z,0
2017-01-17T03:27:55.265Z,0
2017-01-17T03:28:55.231Z,0
2017-01-17T03:29:55.181Z,0
2017-01-17T03:30:55.158Z,0
2017-01-17T03:31:55.125Z,0
2017-01-17T03:32:55.103Z,0
2017-01-17T03:33:55.077Z,0
2017-01-17T03:34:55.032Z,0
2017-01-17T03:35:55.011Z,0
2017-01-17T03:36:54.991Z,0
2017-01-17T03:37:54.949Z,0
2017-01-17T03:38:54.904Z,0
2017-01-17T03:39:54.881Z,0
2017-01-17T03:40:54.841Z,0
2017-01-17T03:41:54.817Z,0
2017-01-17T03:42:54.780Z,0
2017-01-17T03:43:54.754Z,0
2017-01-17T03:44:54.722Z,0
2017-01-17T03:45:54.693Z,0
2017-01-17T03:46:54.664Z,0
2017-01-17T03:47:54.640Z,0
2017-01-17T03:48:54.601Z,0
2017-01-17T03:49:54.572Z,0
2017-01-17T03:50:54.522Z,0
2017-01-17T03:51:54.506Z,0
2017-01-17T03:52:54.477Z,0
2017-01-17T03:53:54.446Z,0
2017-01-17T03:54:54.414Z,0
2017-01-17T03:55:54.391Z,0
2017-01-17T03:56:54.356Z,0
2017-01-17T03:57:54.322Z,0
2017-01-17T03:58:54.284Z,0
2017-01-17T03:59:54.251Z,0
2017-01-17T04:00:54.217Z,0
2017-01-17T04:01:54.193Z,0
2017-01-17T04:02:54.198Z,0
2017-01-17T04:03:54.141Z,0
2017-01-17T04:04:54.094Z,0
2017-01-17T04:05:54.068Z,0
2017-01-17T04:06:54.033Z,0
2017-01-17T04:07:53.996Z,0
2017-01-17T04:08:53.983Z,0
2017-01-17T04:09:53.947Z,0
2017-01-17T04:10:53.906Z,0
2017-01-17T04:11:53.884Z,0
2017-01-17T04:12:53.847Z,0
2017-01-17T04:13:53.819Z,0
2017-01-17T04:14:53.780Z,0
2017-01-17T04:15:53.754Z,0
2017-01-17T04:16:53.737Z,0
2017-01-17T04:17:53.706Z,0
2017-01-17T04:18:53.666Z,0
2017-01-17T04:19:53.622Z,0
2017-01-17T04:20:53.603Z,0
2017-01-17T04:21:53.609Z,0
2017-01-17T04:22:53.540Z,0
2017-01-17T04:23:53.508Z,0
2017-01-17T04:24:53.485Z,0
2017-01-17T04:25:53.454Z,0
2017-01-17T04:26:53.414Z,0
2017-01-17T04:27:53.393Z,0
2017-01-17T04:28:53.358Z,0
2017-01-17T04:29:53.331Z,0
2017-01-17T04:30:53.303Z,0
2017-01-17T04:31:53.273Z,0
2017-01-17T04:32:53.707Z,0
2017-01-17T04:33:53.201Z,0
2017-01-17T04:34:53.161Z,0
2017-01-17T04:35:53.148Z,0
2017-01-17T04:36:53.104Z,0
2017-01-17T04:37:53.083Z,0
2017-01-17T04:38:53.046Z,0
2017-01-17T04:39:53.013Z,0
2017-01-17T04:40:52.998Z,0
2017-01-17T04:41:52.952Z,0
2017-01-17T04:42:52.921Z,0
2017-01-17T04:43:52.900Z,0
2017-01-17T04:44:52.859Z,0
2017-01-17T04:45:52.845Z,0
2017-01-17T04:46:52.806Z,0
2017-01-17T04:47:52.779Z,0
2017-01-17T04:48:52.744Z,0
2017-01-17T04:49:52.714Z,0
2017-01-17T04:50:52.677Z,0
2017-01-17T04:51:52.640Z,0
2017-01-17T04:52:52.626Z,0
2017-01-17T04:53:52.584Z,0
2017-01-17T04:54:52.561Z,0
2017-01-17T04:55:52.532Z,0
2017-01-17T04:56:52.489Z,0
2017-01-17T04:57:52.464Z,0
2017-01-17T04:58:52.431Z,0
2017-01-17T04:59:52.401Z,0
2017-01-17T05:00:52.368Z,0
2017-01-17T05:01:52.369Z,0
2017-01-17T05:02:52.310Z,0
2017-01-17T05:03:52.280Z,0
2017-01-17T05:04:52.246Z,0
2017-01-17T05:05:52.223Z,0
2017-01-17T05:06:52.187Z,0
2017-01-17T05:07:52.153Z,0
2017-01-17T05:08:52.151Z,0
2017-01-17T05:09:52.101Z,0
2017-01-17T05:10:52.067Z,0
2017-01-17T05:11:52.022Z,0
2017-01-17T05:12:52.000Z,0
2017-01-17T05:13:51.976Z,0
2017-01-17T05:14:51.940Z,0
2017-01-17T05:15:51.918Z,0
2017-01-17T05:16:51.876Z,0
2017-01-17T05:17:51.850Z,0
2017-01-17T05:18:51.809Z,0
2017-01-17T05:19:51.784Z,0
2017-01-17T05:20:51.741Z,0
2017-01-17T05:21:51.713Z,0
2017-01-17T05:22:51.683Z,0
2017-01-17T05:23:51.658Z,0
2017-01-17T05:24:51.619Z,0
2017-01-17T05:25:51.597Z,0
2017-01-17T05:26:51.559Z,0
2017-01-17T05:27:51.534Z,0
2017-01-17T05:28:51.499Z,0
2017-01-17T05:29:51.466Z,0
2017-01-17T05:30:51.460Z,0
2017-01-17T05:31:51.404Z,0
2017-01-17T05:32:51.373Z,0
2017-01-17T05:33:51.349Z,0
2017-01-17T05:34:51.300Z,0
2017-01-17T05:35:51.282Z,0
2017-01-17T05:36:51.249Z,0
2017-01-17T05:37:51.216Z,0
2017-01-17T05:38:51.181Z,0
2017-01-17T05:39:51.152Z,0
2017-01-17T05:40:51.114Z,0
2017-01-17T05:41:51.084Z,0
2017-01-17T05:42:51.051Z,0
2017-01-17T05:43:51.028Z,0
2017-01-17T05:44:50.992Z,0
2017-01-17T05:45:50.962Z,0
2017-01-17T05:46:50.931Z,0
2017-01-17T05:47:50.901Z,0
2017-01-17T05:48:50.865Z,0
2017-01-17T05:49:50.846Z,0
2017-01-17T05:50:50.803Z,0
2017-01-17T05:51:50.767Z,0
2017-01-17T05:52:50.727Z,0
2017-01-17T05:53:50.715Z,0
2017-01-17T05:54:50.685Z,0
2017-01-17T05:55:50.651Z,0
2017-01-17T05:56:50.622Z,0
2017-01-17T05:57:50.595Z,0
2017-01-17T05:58:50.554Z,0
2017-01-17T05:59:50.517Z,0
2017-01-17T06:00:50.508Z,0
2017-01-17T06:01:50.488Z,0
2017-01-17T06:02:50.425Z,0
2017-01-17T06:03:50.389Z,0
2017-01-17T06:04:50.369Z,0
2017-01-17T06:05:50.332Z,0
2017-01-17T06:06:50.293Z,0
2017-01-17T06:07:50.273Z,0
2017-01-17T06:08:50.231Z,0
2017-01-17T06:09:50.213Z,0
2017-01-17T06:10:50.162Z,0
2017-01-17T06:11:50.143Z,0
2017-01-17T06:12:50.116Z,0
2017-01-17T06:13:50.086Z,0
2017-01-17T06:14:50.056Z,0
2017-01-17T06:15:50.016Z,0
2017-01-17T06:16:49.974Z,0
2017-01-17T06:17:49.950Z,0
2017-01-17T06:18:49.917Z,0
2017-01-17T06:19:49.880Z,0
2017-01-17T06:20:49.847Z,0
2017-01-17T06:21:49.829Z,0
2017-01-17T06:22:49.788Z,0
2017-01-17T06:23:49.768Z,0
2017-01-17T06:24:49.743Z,0
2017-01-17T06:25:49.691Z,0
2017-01-17T06:26:49.672Z,0
2017-01-17T06:27:49.641Z,0
2017-01-17T06:28:49.610Z,0
2017-01-17T06:29:49.566Z,4
2017-01-17T06:30:49.543Z,4
2017-01-17T06:31:49.519Z,0
2017-01-17T06:32:49.481Z,4
2017-01-17T06:33:49.436Z,4
2017-01-17T06:34:49.411Z,4
2017-01-17T06:35:49.378Z,4
2017-01-17T06:36:49.356Z,4
2017-01-17T06:37:49.315Z,8
2017-01-17T06:38:49.286Z,8
2017-01-17T06:39:49.252Z,12
2017-01-17T06:40:49.225Z,12
2017-01-17T06:41:49.195Z,16
2017-01-17T06:42:49.160Z,20
2017-01-17T06:43:49.141Z,20
2017-01-17T06:44:49.110Z,24
2017-01-17T06:45:49.061Z,28
2017-01-17T06:46:49.060Z,32
2017-01-17T06:47:48.999Z,40
2017-01-17T06:48:48.974Z,44
2017-01-17T06:49:48.973Z,48
2017-01-17T06:50:48.903Z,52
2017-01-17T06:51:48.878Z,64
2017-01-17T06:52:48.887Z,76
2017-01-17T06:53:48.812Z,80
2017-01-17T06:54:48.778Z,88
2017-01-17T06:55:48.757Z,92
2017-01-17T06:56:48.712Z,100
2017-01-17T06:57:48.696Z,116
2017-01-17T06:58:48.661Z,112
2017-01-17T06:59:48.632Z,128
2017-01-17T07:00:48.629Z,128
2017-01-17T07:01:48.562Z,156
2017-01-17T07:02:48.558Z,160
2017-01-17T07:03:48.511Z,164
2017-01-17T07:04:48.468Z,192
2017-01-17T07:05:48.831Z,200
2017-01-17T07:06:49.563Z,232
2017-01-17T07:07:48.369Z,260
2017-01-17T07:08:48.338Z,244
2017-01-17T07:09:48.317Z,248
2017-01-17T07:10:48.270Z,240
2017-01-17T07:11:48.243Z,272
2017-01-17T07:12:48.228Z,280
2017-01-17T07:13:48.181Z,288
2017-01-17T07:14:48.150Z,304
2017-01-17T07:15:48.133Z,324
2017-01-17T07:16:48.098Z,300
2017-01-17T07:17:48.057Z,348
2017-01-17T07:18:48.063Z,356
2017-01-17T07:19:47.999Z,344
2017-01-17T07:20:47.974Z,404
2017-01-17T07:21:47.938Z,412
2017-01-17T07:22:47.890Z,452
2017-01-17T07:23:47.874Z,436
2017-01-17T07:24:47.842Z,452
2017-01-17T07:25:47.798Z,492
2017-01-17T07:26:47.769Z,752
2017-01-17T07:27:47.753Z,804
2017-01-17T07:28:47.707Z,692
2017-01-17T07:29:47.682Z,756
2017-01-17T07:30:47.648Z,940
2017-01-17T07:31:47.617Z,992
2017-01-17T07:32:47.576Z,1236
2017-01-17T07:33:47.554Z,1160
2017-01-17T07:34:47.524Z,1352
2017-01-17T07:35:47.495Z,1144
2017-01-17T07:36:47.452Z,1132
2017-01-17T07:37:47.453Z,996
2017-01-17T07:38:47.408Z,1288
2017-01-17T07:39:47.371Z,1440
2017-01-17T07:40:47.352Z,1288
2017-01-17T07:41:47.305Z,1700
2017-01-17T07:42:47.285Z,1416
2017-01-17T07:43:47.243Z,1316
2017-01-17T07:44:47.214Z,1540
2017-01-17T07:45:47.177Z,1420
2017-01-17T07:46:47.164Z,1312
2017-01-17T07:47:47.132Z,1680
2017-01-17T07:48:47.092Z,1688
2017-01-17T07:49:47.047Z,1476
2017-01-17T07:50:47.039Z,1664
2017-01-17T07:51:46.990Z,1884
2017-01-17T07:52:46.962Z,2760
2017-01-17T07:53:46.929Z,2800
2017-01-17T07:54:46.914Z,2172
2017-01-17T07:55:46.869Z,1928
2017-01-17T07:56:46.831Z,1856
2017-01-17T07:57:46.814Z,2472
2017-01-17T07:58:46.788Z,2944
2017-01-17T07:59:46.748Z,3040
2017-01-17T08:00:46.720Z,2460
2017-01-17T08:01:46.683Z,2144
2017-01-17T08:02:46.652Z,2220
2017-01-17T08:03:46.628Z,2500
2017-01-17T08:04:46.584Z,2844
2017-01-17T08:05:46.561Z,2920
2017-01-17T08:06:46.524Z,3420
2017-01-17T08:07:46.495Z,3728
2017-01-17T08:08:46.464Z,2448
2017-01-17T08:09:46.445Z,2652
2017-01-17T08:10:46.415Z,2532
2017-01-17T08:11:46.373Z,3292
2017-01-17T08:12:46.635Z,3100
2017-01-17T08:13:46.576Z,2456
2017-01-17T08:14:46.538Z,3116
2017-01-17T08:15:46.919Z,3976
2017-01-17T08:16:46.418Z,3588
2017-01-17T08:17:46.463Z,3980
2017-01-17T08:18:46.491Z,3824
2017-01-17T08:19:46.533Z,4032
2017-01-17T08:20:46.364Z,3236
2017-01-17T08:21:46.114Z,2840
2017-01-17T08:22:46.053Z,3928
2017-01-17T08:23:46.009Z,3224
2017-01-17T08:24:45.972Z,3944
2017-01-17T08:25:45.964Z,4040
2017-01-17T08:26:45.921Z,4096
2017-01-17T08:27:45.884Z,3540
2017-01-17T08:28:45.860Z,3276
2017-01-17T08:29:45.829Z,3612
2017-01-17T08:30:45.807Z,3772
2017-01-17T08:31:45.766Z,3796
2017-01-17T08:32:45.743Z,3984
2017-01-17T08:33:45.701Z,4160
2017-01-17T08:34:45.662Z,4028
2017-01-17T08:35:45.654Z,3640
2017-01-17T08:36:45.613Z,3964
2017-01-17T08:37:45.580Z,4768
2017-01-17T08:38:45.551Z,4116
2017-01-17T08:39:45.543Z,4428
2017-01-17T08:40:45.484Z,4288
2017-01-17T08:41:45.452Z,3336
2017-01-17T08:42:45.424Z,4852
2017-01-17T08:43:45.389Z,6040
2017-01-17T08:44:45.364Z,7268
2017-01-17T08:45:45.343Z,4388
2017-01-17T08:46:45.313Z,4084
2017-01-17T08:47:45.271Z,5636
2017-01-17T08:48:45.246Z,8440
2017-01-17T08:49:45.227Z,6464
2017-01-17T08:50:45.192Z,5800
2017-01-17T08:51:45.156Z,11024
2017-01-17T08:52:45.139Z,6104
2017-01-17T08:53:45.088Z,12024
2017-01-17T08:54:45.065Z,6020
2017-01-17T08:55:45.047Z,3760
2017-01-17T08:56:45.396Z,4832
2017-01-17T08:57:44.988Z,5492
2017-01-17T08:58:44.957Z,4908
2017-01-17T08:59:44.921Z,4620
2017-01-17T09:00:44.894Z,5216
2017-01-17T09:01:44.894Z,8956
2017-01-17T09:02:44.821Z,9020
2017-01-17T09:03:44.800Z,7620
2017-01-17T09:04:44.772Z,6968
2017-01-17T09:05:44.748Z,5196
2017-01-17T09:06:44.705Z,3580
2017-01-17T09:07:44.841Z,6020
2017-01-17T09:08:44.669Z,6464
2017-01-17T09:09:44.625Z,5936
2017-01-17T09:10:44.596Z,5824
2017-01-17T09:11:44.575Z,5876
2017-01-17T09:12:44.546Z,4676
2017-01-17T09:13:44.513Z,5152
2017-01-17T09:14:44.471Z,5512
2017-01-17T09:15:44.451Z,5460
2017-01-17T09:16:44.417Z,5196
2017-01-17T09:17:44.386Z,7208
2017-01-17T09:18:44.448Z,4896
2017-01-17T09:19:44.735Z,4808
2017-01-17T09:20:44.296Z,5628
2017-01-17T09:21:44.274Z,4292
2017-01-17T09:22:44.240Z,4120
2017-01-17T09:23:44.217Z,4768
2017-01-17T09:24:44.194Z,7288
2017-01-17T09:25:44.153Z,6332
2017-01-17T09:26:44.128Z,4928
2017-01-17T09:27:44.086Z,4996
2017-01-17T09:28:44.071Z,4412
2017-01-17T09:29:44.034Z,6008
2017-01-17T09:30:44.019Z,5412
2017-01-17T09:31:43.988Z,5516
2017-01-17T09:32:43.957Z,5548
2017-01-17T09:33:43.959Z,4540
2017-01-17T09:34:43.927Z,5028
2017-01-17T09:35:43.867Z,4188
2017-01-17T09:36:43.834Z,5320
2017-01-17T09:37:43.810Z,4452
2017-01-17T09:38:43.788Z,6888
2017-01-17T09:39:43.744Z,8552
2017-01-17T09:40:43.741Z,5192
2017-01-17T09:41:43.703Z,5144
2017-01-17T09:42:43.654Z,5236
2017-01-17T09:43:43.633Z,6912
2017-01-17T09:44:43.604Z,7312
2017-01-17T09:45:43.568Z,6240
2017-01-17T09:46:43.542Z,7272
2017-01-17T09:47:43.513Z,6116
2017-01-17T09:48:43.482Z,8780
2017-01-17T09:49:43.454Z,7520
2017-01-17T09:50:43.431Z,6728
2017-01-17T09:51:43.422Z,7192
2017-01-17T09:52:43.419Z,8020
2017-01-17T09:53:43.339Z,7648
2017-01-17T09:54:43.314Z,5564
2017-01-17T09:55:43.286Z,5828
2017-01-17T09:56:43.256Z,7084
2017-01-17T09:57:43.223Z,6984
2017-01-17T09:58:43.229Z,4320
2017-01-17T09:59:43.168Z,4964
2017-01-17T10:00:43.127Z,5728
2017-01-17T10:01:43.099Z,5616
2017-01-17T10:02:43.085Z,5804
2017-01-17T10:03:43.045Z,8440
2017-01-17T10:04:43.008Z,6624
2017-01-17T10:05:42.983Z,5628
2017-01-17T10:06:42.963Z,5508
2017-01-17T10:07:42.930Z,5000
2017-01-17T10:08:42.902Z,7604
2017-01-17T10:09:42.883Z,6392
2017-01-17T10:10:42.849Z,6280
2017-01-17T10:11:42.807Z,8072
2017-01-17T10:12:42.773Z,7728
2017-01-17T10:13:42.755Z,7388
2017-01-17T10:14:42.722Z,6000
2017-01-17T10:15:42.701Z,6636
2017-01-17T10:16:42.652Z,8020
2017-01-17T10:17:42.624Z,7168
2017-01-17T10:18:42.603Z,7372
2017-01-17T10:19:42.578Z,8164
2017-01-17T10:20:42.555Z,7120
2017-01-17T10:21:42.510Z,5560
2017-01-17T10:22:42.479Z,6400
2017-01-17T10:23:42.457Z,5868
2017-01-17T10:24:42.423Z,6144
2017-01-17T10:25:42.403Z,6756
2017-01-17T10:26:42.372Z,6988
2017-01-17T10:27:42.332Z,9860
2017-01-17T10:28:42.304Z,7172
2017-01-17T10:29:42.276Z,5424
2017-01-17T10:30:42.252Z,6604
2017-01-17T10:31:42.216Z,6612
2017-01-17T10:32:42.181Z,7152
2017-01-17T10:33:42.145Z,8184
2017-01-17T10:34:42.123Z,8976
2017-01-17T10:35:42.105Z,9340
2017-01-17T10:36:42.240Z,8332
2017-01-17T10:37:42.033Z,8092
2017-01-17T10:38:41.996Z,7628
2017-01-17T10:39:41.965Z,8568
2017-01-17T10:40:41.937Z,7552
2017-01-17T10:41:41.960Z,9928
2017-01-17T10:42:41.879Z,9088
2017-01-17T10:43:41.852Z,8760
2017-01-17T10:44:41.823Z,6816
2017-01-17T10:45:41.797Z,9392
2017-01-17T10:46:41.768Z,9180
2017-01-17T10:47:41.724Z,10116
2017-01-17T10:48:41.709Z,9268
2017-01-17T10:49:41.679Z,8216
2017-01-17T10:50:41.655Z,8048
2017-01-17T10:51:41.615Z,8584
2017-01-17T10:52:41.592Z,8884
2017-01-17T10:53:41.557Z,10044
2017-01-17T10:54:41.529Z,7892
2017-01-17T10:55:41.498Z,10388
2017-01-17T10:56:41.476Z,8128
2017-01-17T10:57:41.448Z,7356
2017-01-17T10:58:41.417Z,10884
2017-01-17T10:59:41.391Z,12864
2017-01-17T11:00:41.357Z,19456
2017-01-17T11:01:41.331Z,8772
2017-01-17T11:02:41.293Z,7328
2017-01-17T11:03:41.268Z,14312
2017-01-17T11:04:41.252Z,8208
2017-01-17T11:05:41.222Z,6392
2017-01-17T11:06:41.183Z,8612
2017-01-17T11:07:41.160Z,8572
2017-01-17T11:08:41.122Z,12796
2017-01-17T11:09:41.096Z,9176
2017-01-17T11:10:41.070Z,9624
2017-01-17T11:11:41.040Z,7384
2017-01-17T11:12:41.015Z,9832
2017-01-17T11:13:40.983Z,11444
2017-01-17T11:14:40.959Z,8836
2017-01-17T11:15:40.929Z,8288
2017-01-17T11:16:40.907Z,9592
2017-01-17T11:17:40.875Z,7708
2017-01-17T11:18:40.840Z,9244
2017-01-17T11:19:40.806Z,16476
2017-01-17T11:20:40.778Z,12408
2017-01-17T11:21:40.755Z,7092
2017-01-17T11:22:40.747Z,9396
2017-01-17T11:23:40.707Z,12060
2017-01-17T11:24:40.664Z,11568
2017-01-17T11:25:40.645Z,7036
2017-01-17T11:26:40.626Z,8208
2017-01-17T11:27:40.599Z,11016
2017-01-17T11:28:40.557Z,10572
2017-01-17T11:29:40.533Z,10424
2017-01-17T11:30:40.504Z,11580
2017-01-17T11:31:40.481Z,9420
2017-01-17T11:32:40.452Z,11824
2017-01-17T11:33:40.430Z,10872
2017-01-17T11:34:40.418Z,18592
2017-01-17T11:35:40.368Z,16264
2017-01-17T11:36:40.345Z,15168
2017-01-17T11:37:40.323Z,14464
2017-01-17T11:38:40.287Z,8936
2017-01-17T11:39:40.247Z,8248
2017-01-17T11:40:40.249Z,8956
2017-01-17T11:41:40.210Z,13644
2017-01-17T11:42:40.177Z,14196
2017-01-17T11:43:40.162Z,12784
2017-01-17T11:44:40.122Z,14748
2017-01-17T11:45:40.101Z,12240
2017-01-17T11:46:40.061Z,15204
2017-01-17T11:47:40.043Z,13492
2017-01-17T11:48:40.026Z,11068
2017-01-17T11:49:39.997Z,13356
2017-01-17T11:50:39.972Z,11140
2017-01-17T11:51:39.943Z,13012
2017-01-17T11:52:39.915Z,10556
2017-01-17T11:53:39.888Z,14652
2017-01-17T11:54:39.871Z,10040
2017-01-17T11:55:39.835Z,9132
2017-01-17T11:56:39.810Z,13416
2017-01-17T11:57:39.789Z,13468
2017-01-17T11:58:39.759Z,13244
2017-01-17T11:59:39.730Z,13040
2017-01-17T12:00:39.721Z,11384
2017-01-17T12:01:39.675Z,14528
2017-01-17T12:02:39.646Z,8864
2017-01-17T12:03:39.614Z,10992
2017-01-17T12:04:39.595Z,14248
2017-01-17T12:05:39.555Z,10628
2017-01-17T12:06:39.534Z,11220
2017-01-17T12:07:39.504Z,12892
2017-01-17T12:08:39.474Z,11376
2017-01-17T12:09:39.441Z,9324
2017-01-17T12:10:39.416Z,9016
2017-01-17T12:11:39.386Z,10488
2017-01-17T12:12:39.366Z,10952
2017-01-17T12:13:39.325Z,7252
2017-01-17T12:14:39.307Z,9220
2017-01-17T12:15:39.280Z,8960
2017-01-17T12:16:39.256Z,7500
2017-01-17T12:17:39.211Z,14288
2017-01-17T12:18:39.191Z,8584
2017-01-17T12:19:39.155Z,9836
2017-01-17T12:20:39.144Z,12068
2017-01-17T12:21:39.121Z,8836
2017-01-17T12:22:39.098Z,13076
2017-01-17T12:23:39.044Z,10368
2017-01-17T12:24:39.020Z,11956
2017-01-17T12:25:38.994Z,7436
2017-01-17T12:26:38.962Z,6424
2017-01-17T12:27:38.943Z,8420
2017-01-17T12:28:38.910Z,13324
2017-01-17T12:29:38.892Z,12136
2017-01-17T12:30:38.859Z,11496
2017-01-17T12:31:38.816Z,9544
2017-01-17T12:32:38.792Z,7084
2017-01-17T12:33:38.772Z,12616
2017-01-17T12:34:38.738Z,6520
2017-01-17T12:35:38.707Z,6568
2017-01-17T12:36:38.675Z,7592
2017-01-17T12:37:38.656Z,7024
2017-01-17T12:38:38.635Z,9504
2017-01-17T12:39:38.597Z,6192
2017-01-17T12:40:38.568Z,5960
2017-01-17T12:41:38.538Z,3680
2017-01-17T12:42:38.511Z,4100
2017-01-17T12:43:38.488Z,4260
2017-01-17T12:44:38.465Z,5948
2017-01-17T12:45:38.423Z,11828
2017-01-17T12:46:38.393Z,9944
2017-01-17T12:47:38.372Z,5196
2017-01-17T12:48:38.332Z,6468
2017-01-17T12:49:38.301Z,5580
2017-01-17T12:50:38.296Z,9216
2017-01-17T12:51:38.240Z,7112
2017-01-17T12:52:38.202Z,6288
2017-01-17T12:53:38.207Z,4732
2017-01-17T12:54:38.156Z,4320
2017-01-17T12:55:38.115Z,5736
2017-01-17T12:56:38.089Z,8588
2017-01-17T12:57:38.070Z,6724
2017-01-17T12:58:38.040Z,10032
2017-01-17T12:59:38.015Z,26688
2017-01-17T13:00:37.993Z,18400
2017-01-17T13:01:37.976Z,25856
2017-01-17T13:02:37.927Z,24736
2017-01-17T13:03:37.897Z,23296
2017-01-17T13:04:37.856Z,27808
2017-01-17T13:05:37.843Z,47264
2017-01-17T13:06:37.790Z,32544
2017-01-17T13:07:37.774Z,41216
2017-01-17T13:08:37.746Z,54880
2017-01-17T13:09:37.711Z,46688
2017-01-17T13:10:37.700Z,35584
2017-01-17T13:11:37.654Z,29920
2017-01-17T13:12:37.648Z,36384
2017-01-17T13:13:37.606Z,31136
2017-01-17T13:14:37.574Z,49952
2017-01-17T13:15:37.529Z,40224
2017-01-17T13:16:37.497Z,38912
2017-01-17T13:17:37.471Z,22560
2017-01-17T13:18:37.447Z,42848
2017-01-17T13:19:37.421Z,36960
2017-01-17T13:20:37.404Z,36032
2017-01-17T13:21:37.375Z,37344
2017-01-17T13:22:37.338Z,15960
2017-01-17T13:23:37.299Z,27488
2017-01-17T13:24:37.279Z,42208
2017-01-17T13:25:37.238Z,28064
2017-01-17T13:26:37.216Z,28160
2017-01-17T13:27:37.183Z,30432
2017-01-17T13:28:37.175Z,21792
2017-01-17T13:29:37.126Z,22496
2017-01-17T13:30:37.110Z,31168
2017-01-17T13:31:37.091Z,17984
2017-01-17T13:32:37.047Z,29632
2017-01-17T13:33:37.014Z,12420
2017-01-17T13:34:36.979Z,19648
2017-01-17T13:35:36.945Z,17152
2017-01-17T13:36:36.923Z,28352
2017-01-17T13:37:36.898Z,17984
2017-01-17T13:38:36.864Z,19232
2017-01-17T13:39:36.833Z,18528
2017-01-17T13:40:36.791Z,18208
2017-01-17T13:41:36.772Z,33152
2017-01-17T13:42:36.729Z,12612
2017-01-17T13:43:36.714Z,14736
2017-01-17T13:44:36.675Z,24832
2017-01-17T13:45:36.650Z,23168
2017-01-17T13:46:36.621Z,27232
2017-01-17T13:47:36.593Z,18752
2017-01-17T13:48:36.547Z,11164
2017-01-17T13:49:36.534Z,24448
2017-01-17T13:50:36.498Z,24768
2017-01-17T13:51:36.473Z,14856
2017-01-17T13:52:36.429Z,29600
2017-01-17T13:53:36.404Z,17440
2017-01-17T13:54:36.374Z,16284
2017-01-17T13:55:36.350Z,22144